createdAt,value
2018-07-15T00:00:14.388Z,0.00
2018-07-15T00:01:14.319Z,0.00
2018-07-15T00:02:14.961Z,0.00
2018-07-15T00:03:14.267Z,0.00
2018-07-15T00:04:14.242Z,0.00
2018-07-15T00:05:14.508Z,0.00
2018-07-15T00:06:14.191Z,0.00
2018-07-15T00:07:14.161Z,0.00
2018-07-15T00:08:14.953Z,0.00
2018-07-15T00:09:14.174Z,0.00
2018-07-15T00:10:14.081Z,0.00
2018-07-15T00:11:14.059Z,0.00
2018-07-15T00:12:14.031Z,0.00
2018-07-15T00:13:14.004Z,0.00
2018-07-15T00:14:14.507Z,0.00
2018-07-15T00:15:13.952Z,0.00
2018-07-15T00:16:13.926Z,0.00
2018-07-15T00:17:13.901Z,0.00
2018-07-15T00:18:14.000Z,0.00
2018-07-15T00:19:13.852Z,0.00
2018-07-15T00:20:13.829Z,0.00
2018-07-15T00:21:13.791Z,0.00
2018-07-15T00:22:14.453Z,0.00
2018-07-15T00:23:13.780Z,0.00
2018-07-15T00:24:13.712Z,0.00
2018-07-15T00:25:14.010Z,0.00
2018-07-15T00:26:13.658Z,0.00
2018-07-15T00:27:13.636Z,0.00
2018-07-15T00:28:14.460Z,0.00
2018-07-15T00:29:14.464Z,0.00
2018-07-15T00:30:13.602Z,0.00
2018-07-15T00:31:13.532Z,0.00
2018-07-15T00:32:14.457Z,0.00
2018-07-15T00:33:13.474Z,0.00
2018-07-15T00:34:13.489Z,0.00
2018-07-15T00:35:13.956Z,0.00
2018-07-15T00:36:13.390Z,0.00
2018-07-15T00:37:13.411Z,0.00
2018-07-15T00:38:13.957Z,0.00
2018-07-15T00:39:13.313Z,0.00
2018-07-15T00:40:13.332Z,0.00
2018-07-15T00:41:13.263Z,0.00
2018-07-15T00:42:13.509Z,0.00
2018-07-15T00:43:13.208Z,0.00
2018-07-15T00:44:13.183Z,0.00
2018-07-15T00:45:13.151Z,0.00
2018-07-15T00:46:13.978Z,0.00
2018-07-15T00:47:13.144Z,0.00
2018-07-15T00:48:13.073Z,0.00
2018-07-15T00:49:13.961Z,0.00
2018-07-15T00:50:13.019Z,0.00
2018-07-15T00:51:12.990Z,0.00
2018-07-15T00:52:13.019Z,0.00
2018-07-15T00:53:12.938Z,0.00
2018-07-15T00:54:12.911Z,0.00
2018-07-15T00:55:13.473Z,0.00
2018-07-15T00:56:12.861Z,0.00
2018-07-15T00:57:13.008Z,0.00
2018-07-15T00:58:12.809Z,0.00
2018-07-15T00:59:12.793Z,0.00
2018-07-15T01:00:12.797Z,0.00
2018-07-15T01:01:13.460Z,0.00
2018-07-15T01:02:12.739Z,0.00
2018-07-15T01:03:12.672Z,0.00
2018-07-15T01:04:12.654Z,0.00
2018-07-15T01:05:12.619Z,0.00
2018-07-15T01:06:13.465Z,0.00
2018-07-15T01:07:12.710Z,0.00
2018-07-15T01:08:12.538Z,0.00
2018-07-15T01:09:12.516Z,0.00
2018-07-15T01:10:13.461Z,0.00
2018-07-15T01:11:12.456Z,0.00
2018-07-15T01:12:12.473Z,0.00
2018-07-15T01:13:12.402Z,0.00
2018-07-15T01:14:12.967Z,0.00
2018-07-15T01:15:12.354Z,0.00
2018-07-15T01:16:12.960Z,0.00
2018-07-15T01:17:12.339Z,0.00
2018-07-15T01:18:12.312Z,0.00
2018-07-15T01:19:12.246Z,0.00
2018-07-15T01:20:12.969Z,0.00
2018-07-15T01:21:12.187Z,0.00
2018-07-15T01:22:12.161Z,0.00
2018-07-15T01:23:12.180Z,0.00
2018-07-15T01:24:12.963Z,0.00
2018-07-15T01:25:12.079Z,0.00
2018-07-15T01:26:12.054Z,0.00
2018-07-15T01:27:12.029Z,0.00
2018-07-15T01:28:12.044Z,0.00
2018-07-15T01:29:12.519Z,0.00
2018-07-15T01:30:11.953Z,0.00
2018-07-15T01:31:11.919Z,0.00
2018-07-15T01:32:12.465Z,0.00
2018-07-15T01:33:11.869Z,0.00
2018-07-15T01:34:12.021Z,0.00
2018-07-15T01:35:11.809Z,0.00
2018-07-15T01:36:11.840Z,0.00
2018-07-15T01:37:12.469Z,0.00
2018-07-15T01:38:11.729Z,0.00
2018-07-15T01:39:11.699Z,0.00
2018-07-15T01:40:12.484Z,0.00
2018-07-15T01:41:11.705Z,0.00
2018-07-15T01:42:11.618Z,0.00
2018-07-15T01:43:12.468Z,0.00
2018-07-15T01:44:11.569Z,0.00
2018-07-15T01:45:12.467Z,0.00
2018-07-15T01:46:11.550Z,0.00
2018-07-15T01:47:11.492Z,0.00
2018-07-15T01:48:11.969Z,0.00
2018-07-15T01:49:11.472Z,0.00
2018-07-15T01:50:11.402Z,0.00
2018-07-15T01:51:11.376Z,0.00
2018-07-15T01:52:11.405Z,0.00
2018-07-15T01:53:11.325Z,0.00
2018-07-15T01:54:11.294Z,0.00
2018-07-15T01:55:11.268Z,0.00
2018-07-15T01:56:11.248Z,0.00
2018-07-15T01:57:11.526Z,0.00
2018-07-15T01:58:11.187Z,0.00
2018-07-15T01:59:11.207Z,0.00
2018-07-15T02:00:11.132Z,0.00
2018-07-15T02:01:11.971Z,0.00
2018-07-15T02:02:11.080Z,0.00
2018-07-15T02:03:11.109Z,0.00
2018-07-15T02:04:11.969Z,0.00
2018-07-15T02:05:10.996Z,0.00
2018-07-15T02:06:10.970Z,0.00
2018-07-15T02:07:11.032Z,0.00
2018-07-15T02:08:10.911Z,0.00
2018-07-15T02:09:10.891Z,0.00
2018-07-15T02:10:11.499Z,0.00
2018-07-15T02:11:10.841Z,0.00
2018-07-15T02:12:10.850Z,0.00
2018-07-15T02:13:11.472Z,0.00
2018-07-15T02:14:10.800Z,0.00
2018-07-15T02:15:10.720Z,0.00
2018-07-15T02:16:10.703Z,0.00
2018-07-15T02:17:10.673Z,0.00
2018-07-15T02:18:11.473Z,0.00
2018-07-15T02:19:10.658Z,0.00
2018-07-15T02:20:10.631Z,0.00
2018-07-15T02:21:10.564Z,0.00
2018-07-15T02:22:11.477Z,0.00
2018-07-15T02:23:10.505Z,0.00
2018-07-15T02:24:10.529Z,0.00
2018-07-15T02:25:10.450Z,0.00
2018-07-15T02:26:10.431Z,0.00
2018-07-15T02:27:10.401Z,0.00
2018-07-15T02:28:10.980Z,0.00
2018-07-15T02:29:10.386Z,0.00
2018-07-15T02:30:10.357Z,0.00
2018-07-15T02:31:10.974Z,0.00
2018-07-15T02:32:10.300Z,0.00
2018-07-15T02:33:10.232Z,0.00
2018-07-15T02:34:10.990Z,0.00
2018-07-15T02:35:10.219Z,0.00
2018-07-15T02:36:10.149Z,0.00
2018-07-15T02:37:10.122Z,0.00
2018-07-15T02:38:10.098Z,0.00
2018-07-15T02:39:10.977Z,0.00
2018-07-15T02:40:10.088Z,0.00
2018-07-15T02:41:10.012Z,0.00
2018-07-15T02:42:09.984Z,0.00
2018-07-15T02:43:09.957Z,0.00
2018-07-15T02:44:10.481Z,0.00
2018-07-15T02:45:09.966Z,0.00
2018-07-15T02:46:09.875Z,0.00
2018-07-15T02:47:10.478Z,0.00
2018-07-15T02:48:09.864Z,5.63
2018-07-15T02:49:09.800Z,5.63
2018-07-15T02:50:10.028Z,5.63
2018-07-15T02:51:09.783Z,5.63
2018-07-15T02:52:09.716Z,5.63
2018-07-15T02:53:10.478Z,5.63
2018-07-15T02:54:09.659Z,5.63
2018-07-15T02:55:09.633Z,5.63
2018-07-15T02:56:09.662Z,5.63
2018-07-15T02:57:10.497Z,11.25
2018-07-15T02:58:09.554Z,11.25
2018-07-15T02:59:10.479Z,11.25
2018-07-15T03:00:09.492Z,11.25
2018-07-15T03:01:09.524Z,11.25
2018-07-15T03:02:09.446Z,16.88
2018-07-15T03:03:09.982Z,16.88
2018-07-15T03:04:09.388Z,16.88
2018-07-15T03:05:09.365Z,16.88
2018-07-15T03:06:09.532Z,22.50
2018-07-15T03:07:09.349Z,22.50
2018-07-15T03:08:09.282Z,22.50
2018-07-15T03:09:09.982Z,22.50
2018-07-15T03:10:09.221Z,28.13
2018-07-15T03:11:09.198Z,28.13
2018-07-15T03:12:09.211Z,28.13
2018-07-15T03:13:09.140Z,33.75
2018-07-15T03:14:09.108Z,33.75
2018-07-15T03:15:09.982Z,33.75
2018-07-15T03:16:09.062Z,33.75
2018-07-15T03:17:09.105Z,33.75
2018-07-15T03:18:09.005Z,33.75
2018-07-15T03:19:08.972Z,33.75
2018-07-15T03:20:08.945Z,39.38
2018-07-15T03:21:08.972Z,39.38
2018-07-15T03:22:08.933Z,39.38
2018-07-15T03:23:09.487Z,39.38
2018-07-15T03:24:08.851Z,39.38
2018-07-15T03:25:08.808Z,39.38
2018-07-15T03:26:09.484Z,39.38
2018-07-15T03:27:08.810Z,45.00
2018-07-15T03:28:09.485Z,45.00
2018-07-15T03:29:08.698Z,50.63
2018-07-15T03:30:08.670Z,56.25
2018-07-15T03:31:08.673Z,56.25
2018-07-15T03:32:08.674Z,67.50
2018-07-15T03:33:08.591Z,67.50
2018-07-15T03:34:08.644Z,73.13
2018-07-15T03:35:09.489Z,73.13
2018-07-15T03:36:08.511Z,78.75
2018-07-15T03:37:08.531Z,78.75
2018-07-15T03:38:08.502Z,78.75
2018-07-15T03:39:08.985Z,84.38
2018-07-15T03:40:08.400Z,84.38
2018-07-15T03:41:08.486Z,84.38
2018-07-15T03:42:08.345Z,90.00
2018-07-15T03:43:08.362Z,90.00
2018-07-15T03:44:08.291Z,90.00
2018-07-15T03:45:08.304Z,95.63
2018-07-15T03:46:08.240Z,101.25
2018-07-15T03:47:08.994Z,101.25
2018-07-15T03:48:08.231Z,112.50
2018-07-15T03:49:08.204Z,118.13
2018-07-15T03:50:08.131Z,123.75
2018-07-15T03:51:08.990Z,129.38
2018-07-15T03:52:08.081Z,129.38
2018-07-15T03:53:08.093Z,129.38
2018-07-15T03:54:08.066Z,129.38
2018-07-15T03:55:08.003Z,135.00
2018-07-15T03:56:07.980Z,135.00
2018-07-15T03:57:08.496Z,140.63
2018-07-15T03:58:07.920Z,140.63
2018-07-15T03:59:07.942Z,146.25
2018-07-15T04:00:07.875Z,151.88
2018-07-15T04:01:07.840Z,157.50
2018-07-15T04:02:07.812Z,151.88
2018-07-15T04:03:08.492Z,157.50
2018-07-15T04:04:07.813Z,163.13
2018-07-15T04:05:07.788Z,174.38
2018-07-15T04:06:08.492Z,180.00
2018-07-15T04:07:07.681Z,180.00
2018-07-15T04:08:07.653Z,180.00
2018-07-15T04:09:07.634Z,185.63
2018-07-15T04:10:08.043Z,191.25
2018-07-15T04:11:07.579Z,196.88
2018-07-15T04:12:08.495Z,208.13
2018-07-15T04:13:07.525Z,219.38
2018-07-15T04:14:08.496Z,236.25
2018-07-15T04:15:07.531Z,230.63
2018-07-15T04:16:07.448Z,241.88
2018-07-15T04:17:07.426Z,253.13
2018-07-15T04:18:07.996Z,258.75
2018-07-15T04:19:07.368Z,258.75
2018-07-15T04:20:07.397Z,258.75
2018-07-15T04:21:08.042Z,253.13
2018-07-15T04:22:07.339Z,247.50
2018-07-15T04:23:07.289Z,241.88
2018-07-15T04:24:07.995Z,247.50
2018-07-15T04:25:07.212Z,253.13
2018-07-15T04:26:07.234Z,270.00
2018-07-15T04:27:07.543Z,281.25
2018-07-15T04:28:07.146Z,292.50
2018-07-15T04:29:07.125Z,292.50
2018-07-15T04:30:07.996Z,298.13
2018-07-15T04:31:07.096Z,298.13
2018-07-15T04:32:07.093Z,326.25
2018-07-15T04:33:07.008Z,309.38
2018-07-15T04:34:07.498Z,303.75
2018-07-15T04:35:06.957Z,309.38
2018-07-15T04:36:07.497Z,320.63
2018-07-15T04:37:06.970Z,331.88
2018-07-15T04:38:06.883Z,343.13
2018-07-15T04:39:06.859Z,337.50
2018-07-15T04:40:07.502Z,337.50
2018-07-15T04:41:06.808Z,337.50
2018-07-15T04:42:06.828Z,354.38
2018-07-15T04:43:06.802Z,365.63
2018-07-15T04:44:07.503Z,376.88
2018-07-15T04:45:06.710Z,388.13
2018-07-15T04:46:06.689Z,393.75
2018-07-15T04:47:07.504Z,393.75
2018-07-15T04:48:06.680Z,388.13
2018-07-15T04:49:06.612Z,388.13
2018-07-15T04:50:07.526Z,399.38
2018-07-15T04:51:06.558Z,416.25
2018-07-15T04:52:06.539Z,421.88
2018-07-15T04:53:07.057Z,433.13
2018-07-15T04:54:06.492Z,444.38
2018-07-15T04:55:07.007Z,450.00
2018-07-15T04:56:06.453Z,450.00
2018-07-15T04:57:07.001Z,455.63
2018-07-15T04:58:06.437Z,444.38
2018-07-15T04:59:06.372Z,455.63
2018-07-15T05:00:06.571Z,450.00
2018-07-15T05:01:06.317Z,444.38
2018-07-15T05:02:06.373Z,450.00
2018-07-15T05:03:06.318Z,450.00
2018-07-15T05:04:06.264Z,455.63
2018-07-15T05:05:06.241Z,461.25
2018-07-15T05:06:06.213Z,466.88
2018-07-15T05:07:06.179Z,483.75
2018-07-15T05:08:06.194Z,489.38
2018-07-15T05:09:07.009Z,495.00
2018-07-15T05:10:06.105Z,500.63
2018-07-15T05:11:06.081Z,495.00
2018-07-15T05:12:06.103Z,500.63
2018-07-15T05:13:07.004Z,506.25
2018-07-15T05:14:06.054Z,511.88
2018-07-15T05:15:05.986Z,489.38
2018-07-15T05:16:05.965Z,489.38
2018-07-15T05:17:05.991Z,500.63
2018-07-15T05:18:05.916Z,511.88
2018-07-15T05:19:05.905Z,523.13
2018-07-15T05:20:05.874Z,523.13
2018-07-15T05:21:05.846Z,517.50
2018-07-15T05:22:05.886Z,506.25
2018-07-15T05:23:05.812Z,500.63
2018-07-15T05:24:05.785Z,523.13
2018-07-15T05:25:05.767Z,556.88
2018-07-15T05:26:05.734Z,579.38
2018-07-15T05:27:06.069Z,624.38
2018-07-15T05:28:05.694Z,607.50
2018-07-15T05:29:05.667Z,641.25
2018-07-15T05:30:06.520Z,635.63
2018-07-15T05:31:05.619Z,618.75
2018-07-15T05:32:06.069Z,613.13
2018-07-15T05:33:05.570Z,630.00
2018-07-15T05:34:05.564Z,635.63
2018-07-15T05:35:06.598Z,641.25
2018-07-15T05:36:05.504Z,658.13
2018-07-15T05:37:05.525Z,652.50
2018-07-15T05:38:05.594Z,613.13
2018-07-15T05:39:05.434Z,585.00
2018-07-15T05:40:05.417Z,573.75
2018-07-15T05:41:05.392Z,579.38
2018-07-15T05:42:05.372Z,596.25
2018-07-15T05:43:05.392Z,607.50
2018-07-15T05:44:05.325Z,613.13
2018-07-15T05:45:06.014Z,630.00
2018-07-15T05:46:05.278Z,658.13
2018-07-15T05:47:05.264Z,669.38
2018-07-15T05:48:05.571Z,686.25
2018-07-15T05:49:06.023Z,680.63
2018-07-15T05:50:05.190Z,669.38
2018-07-15T05:51:07.010Z,652.50
2018-07-15T05:52:05.188Z,641.25
2018-07-15T05:53:05.169Z,646.88
2018-07-15T05:54:05.105Z,635.63
2018-07-15T05:55:05.081Z,630.00
2018-07-15T05:56:05.066Z,630.00
2018-07-15T05:57:05.051Z,618.75
2018-07-15T05:58:05.172Z,624.38
2018-07-15T05:59:04.993Z,624.38
2018-07-15T06:00:04.976Z,646.88
2018-07-15T06:01:04.957Z,658.13
2018-07-15T06:02:04.929Z,652.50
2018-07-15T06:03:04.966Z,618.75
2018-07-15T06:04:04.887Z,596.25
2018-07-15T06:05:04.870Z,573.75
2018-07-15T06:06:04.847Z,556.88
2018-07-15T06:07:04.824Z,517.50
2018-07-15T06:08:04.876Z,506.25
2018-07-15T06:09:04.781Z,483.75
2018-07-15T06:10:04.761Z,461.25
2018-07-15T06:11:04.738Z,450.00
2018-07-15T06:12:04.719Z,433.13
2018-07-15T06:13:04.749Z,416.25
2018-07-15T06:14:04.673Z,405.00
2018-07-15T06:15:04.651Z,388.13
2018-07-15T06:16:04.630Z,388.13
2018-07-15T06:17:04.650Z,382.50
2018-07-15T06:18:04.676Z,382.50
2018-07-15T06:19:04.570Z,376.88
2018-07-15T06:20:04.541Z,371.25
2018-07-15T06:21:05.430Z,376.88
2018-07-15T06:22:04.499Z,376.88
2018-07-15T06:23:04.534Z,382.50
2018-07-15T06:24:04.456Z,382.50
2018-07-15T06:25:04.430Z,382.50
2018-07-15T06:26:04.412Z,376.88
2018-07-15T06:27:04.386Z,376.88
2018-07-15T06:28:04.408Z,371.25
2018-07-15T06:29:04.389Z,365.63
2018-07-15T06:30:04.317Z,365.63
2018-07-15T06:31:04.310Z,365.63
2018-07-15T06:32:04.274Z,371.25
2018-07-15T06:33:04.251Z,365.63
2018-07-15T06:34:04.274Z,365.63
2018-07-15T06:35:04.251Z,365.63
2018-07-15T06:36:04.182Z,365.63
2018-07-15T06:37:04.159Z,360.00
2018-07-15T06:38:04.140Z,360.00
2018-07-15T06:39:04.114Z,360.00
2018-07-15T06:40:04.165Z,360.00
2018-07-15T06:41:04.117Z,360.00
2018-07-15T06:42:04.046Z,360.00
2018-07-15T06:43:04.023Z,360.00
2018-07-15T06:44:04.002Z,360.00
2018-07-15T06:45:03.977Z,360.00
2018-07-15T06:46:04.005Z,360.00
2018-07-15T06:47:03.929Z,360.00
2018-07-15T06:48:03.921Z,365.63
2018-07-15T06:49:03.889Z,376.88
2018-07-15T06:50:03.867Z,371.25
2018-07-15T06:51:03.886Z,371.25
2018-07-15T06:52:03.867Z,371.25
2018-07-15T06:53:03.797Z,371.25
2018-07-15T06:54:03.842Z,365.63
2018-07-15T06:55:03.751Z,354.38
2018-07-15T06:56:03.784Z,348.75
2018-07-15T06:57:03.750Z,343.13
2018-07-15T06:58:03.687Z,337.50
2018-07-15T06:59:03.654Z,331.88
2018-07-15T07:00:03.641Z,331.88
2018-07-15T07:01:03.637Z,331.88
2018-07-15T07:02:03.619Z,331.88
2018-07-15T07:03:03.603Z,331.88
2018-07-15T07:04:03.537Z,331.88
2018-07-15T07:05:03.515Z,331.88
2018-07-15T07:06:03.493Z,331.88
2018-07-15T07:07:03.467Z,331.88
2018-07-15T07:08:03.488Z,331.88
2018-07-15T07:09:03.465Z,331.88
2018-07-15T07:10:03.402Z,331.88
2018-07-15T07:11:03.373Z,331.88
2018-07-15T07:12:03.359Z,331.88
2018-07-15T07:13:03.388Z,331.88
2018-07-15T07:14:03.424Z,331.88
2018-07-15T07:15:03.289Z,331.88
2018-07-15T07:16:03.284Z,331.88
2018-07-15T07:17:03.283Z,337.50
2018-07-15T07:18:03.216Z,337.50
2018-07-15T07:19:03.209Z,331.88
2018-07-15T07:20:03.219Z,331.88
2018-07-15T07:21:03.149Z,331.88
2018-07-15T07:22:03.121Z,331.88
2018-07-15T07:23:03.591Z,337.50
2018-07-15T07:24:03.193Z,331.88
2018-07-15T07:25:03.048Z,343.13
2018-07-15T07:26:03.027Z,337.50
2018-07-15T07:27:03.009Z,337.50
2018-07-15T07:28:02.980Z,343.13
2018-07-15T07:29:03.015Z,343.13
2018-07-15T07:30:02.935Z,343.13
2018-07-15T07:31:02.911Z,348.75
2018-07-15T07:32:02.940Z,348.75
2018-07-15T07:33:02.875Z,354.38
2018-07-15T07:34:02.899Z,360.00
2018-07-15T07:35:02.817Z,354.38
2018-07-15T07:36:02.794Z,348.75
2018-07-15T07:37:02.792Z,365.63
2018-07-15T07:38:02.791Z,393.75
2018-07-15T07:39:02.729Z,405.00
2018-07-15T07:40:02.702Z,410.63
2018-07-15T07:41:02.728Z,393.75
2018-07-15T07:42:02.656Z,376.88
2018-07-15T07:43:02.632Z,376.88
2018-07-15T07:44:02.612Z,388.13
2018-07-15T07:45:02.588Z,399.38
2018-07-15T07:46:02.613Z,399.38
2018-07-15T07:47:02.674Z,388.13
2018-07-15T07:48:03.045Z,365.63
2018-07-15T07:49:02.497Z,365.63
2018-07-15T07:50:02.474Z,365.63
2018-07-15T07:51:02.494Z,360.00
2018-07-15T07:52:02.434Z,371.25
2018-07-15T07:53:03.045Z,393.75
2018-07-15T07:54:02.383Z,427.50
2018-07-15T07:55:02.398Z,444.38
2018-07-15T07:56:02.346Z,466.88
2018-07-15T07:57:02.342Z,450.00
2018-07-15T07:58:03.044Z,438.75
2018-07-15T07:59:02.313Z,438.75
2018-07-15T08:00:02.255Z,444.38
2018-07-15T08:01:02.228Z,461.25
2018-07-15T08:02:02.261Z,450.00
2018-07-15T08:03:02.182Z,438.75
2018-07-15T08:04:02.214Z,438.75
2018-07-15T08:05:02.140Z,410.63
2018-07-15T08:06:02.118Z,405.00
2018-07-15T08:07:02.094Z,393.75
2018-07-15T08:08:02.608Z,405.00
2018-07-15T08:09:02.051Z,405.00
2018-07-15T08:10:02.027Z,393.75
2018-07-15T08:11:02.063Z,388.13
2018-07-15T08:12:01.982Z,399.38
2018-07-15T08:13:02.553Z,393.75
2018-07-15T08:14:01.939Z,399.38
2018-07-15T08:15:01.920Z,399.38
2018-07-15T08:16:01.950Z,461.25
2018-07-15T08:17:01.874Z,472.50
2018-07-15T08:18:02.552Z,517.50
2018-07-15T08:19:01.829Z,506.25
2018-07-15T08:20:01.815Z,500.63
2018-07-15T08:21:01.830Z,495.00
2018-07-15T08:22:01.766Z,506.25
2018-07-15T08:23:02.558Z,523.13
2018-07-15T08:24:01.765Z,528.75
2018-07-15T08:25:01.753Z,528.75
2018-07-15T08:26:02.555Z,545.63
2018-07-15T08:27:01.656Z,562.50
2018-07-15T08:28:02.641Z,568.13
2018-07-15T08:29:01.669Z,556.88
2018-07-15T08:30:01.592Z,523.13
2018-07-15T08:31:01.571Z,495.00
2018-07-15T08:32:01.549Z,466.88
2018-07-15T08:33:02.057Z,444.38
2018-07-15T08:34:01.609Z,416.25
2018-07-15T08:35:01.816Z,393.75
2018-07-15T08:36:01.507Z,388.13
2018-07-15T08:37:01.449Z,382.50
2018-07-15T08:38:02.054Z,393.75
2018-07-15T08:39:01.423Z,365.63
2018-07-15T08:40:01.429Z,376.88
2018-07-15T08:41:01.358Z,399.38
2018-07-15T08:42:01.337Z,393.75
2018-07-15T08:43:01.313Z,421.88
2018-07-15T08:44:01.305Z,461.25
2018-07-15T08:45:01.408Z,534.38
2018-07-15T08:46:01.312Z,590.63
2018-07-15T08:47:01.230Z,652.50
2018-07-15T08:48:01.221Z,725.63
2018-07-15T08:49:01.187Z,731.25
2018-07-15T08:50:01.203Z,703.13
2018-07-15T08:51:01.150Z,680.63
2018-07-15T08:52:01.173Z,646.88
2018-07-15T08:53:01.109Z,607.50
2018-07-15T08:54:01.079Z,613.13
2018-07-15T08:55:01.083Z,601.88
2018-07-15T08:56:01.083Z,585.00
2018-07-15T08:57:01.069Z,596.25
2018-07-15T08:58:00.997Z,585.00
2018-07-15T08:59:00.983Z,613.13
2018-07-15T09:00:00.964Z,630.00
2018-07-15T09:01:01.004Z,618.75
2018-07-15T09:02:00.961Z,613.13
2018-07-15T09:03:00.898Z,613.13
2018-07-15T09:04:00.878Z,635.63
2018-07-15T09:05:00.913Z,652.50
2018-07-15T09:06:00.884Z,669.38
2018-07-15T09:07:00.868Z,652.50
2018-07-15T09:08:00.791Z,613.13
2018-07-15T09:09:00.775Z,596.25
2018-07-15T09:10:00.770Z,601.88
2018-07-15T09:11:00.733Z,630.00
2018-07-15T09:12:00.761Z,652.50
2018-07-15T09:13:00.689Z,652.50
2018-07-15T09:14:00.672Z,635.63
2018-07-15T09:15:00.657Z,601.88
2018-07-15T09:16:00.627Z,601.88
2018-07-15T09:17:00.652Z,562.50
2018-07-15T09:18:00.589Z,489.38
2018-07-15T09:19:00.568Z,427.50
2018-07-15T09:20:00.551Z,388.13
2018-07-15T09:21:00.625Z,365.63
2018-07-15T09:22:00.511Z,354.38
2018-07-15T09:23:00.530Z,348.75
2018-07-15T09:24:00.463Z,348.75
2018-07-15T09:25:00.446Z,348.75
2018-07-15T09:26:00.429Z,348.75
2018-07-15T09:27:00.403Z,348.75
2018-07-15T09:28:00.440Z,360.00
2018-07-15T09:29:00.365Z,360.00
2018-07-15T09:30:00.351Z,371.25
2018-07-15T09:31:00.378Z,382.50
2018-07-15T09:32:01.073Z,388.13
2018-07-15T09:33:00.344Z,405.00
2018-07-15T09:34:00.259Z,444.38
2018-07-15T09:35:00.234Z,483.75
2018-07-15T09:36:00.222Z,511.88
2018-07-15T09:37:00.196Z,534.38
2018-07-15T09:38:00.218Z,517.50
2018-07-15T09:39:00.153Z,523.13
2018-07-15T09:40:00.136Z,472.50
2018-07-15T09:41:00.120Z,410.63
2018-07-15T09:42:01.078Z,360.00
2018-07-15T09:43:00.108Z,331.88
2018-07-15T09:44:00.053Z,326.25
2018-07-15T09:45:00.034Z,320.63
2018-07-15T09:46:00.067Z,309.38
2018-07-15T09:46:59.991Z,303.75
2018-07-15T09:48:00.575Z,298.13
2018-07-15T09:48:59.959Z,303.75
2018-07-15T09:49:59.924Z,309.38
2018-07-15T09:50:59.943Z,315.00
2018-07-15T09:51:59.925Z,315.00
2018-07-15T09:53:00.579Z,315.00
2018-07-15T09:53:59.841Z,315.00
2018-07-15T09:54:59.822Z,309.38
2018-07-15T09:55:59.793Z,303.75
2018-07-15T09:56:59.815Z,315.00
2018-07-15T09:58:00.579Z,360.00
2018-07-15T09:58:59.771Z,416.25
2018-07-15T09:59:59.714Z,455.63
2018-07-15T10:00:59.688Z,478.13
2018-07-15T10:01:59.715Z,438.75
2018-07-15T10:03:00.581Z,433.13
2018-07-15T10:03:59.627Z,410.63
2018-07-15T10:04:59.603Z,382.50
2018-07-15T10:05:59.578Z,343.13
2018-07-15T10:06:59.602Z,343.13
2018-07-15T10:07:59.540Z,315.00
2018-07-15T10:08:59.528Z,298.13
2018-07-15T10:09:59.557Z,292.50
2018-07-15T10:10:59.484Z,292.50
2018-07-15T10:11:59.453Z,292.50
2018-07-15T10:12:59.484Z,292.50
2018-07-15T10:13:59.408Z,292.50
2018-07-15T10:14:59.393Z,292.50
2018-07-15T10:15:59.365Z,292.50
2018-07-15T10:16:59.386Z,303.75
2018-07-15T10:17:59.365Z,309.38
2018-07-15T10:18:59.361Z,320.63
2018-07-15T10:19:59.280Z,348.75
2018-07-15T10:20:59.261Z,365.63
2018-07-15T10:21:59.234Z,371.25
2018-07-15T10:22:59.266Z,382.50
2018-07-15T10:23:59.192Z,382.50
2018-07-15T10:24:59.180Z,376.88
2018-07-15T10:25:59.150Z,393.75
2018-07-15T10:26:59.128Z,421.88
2018-07-15T10:27:59.190Z,461.25
2018-07-15T10:28:59.130Z,495.00
2018-07-15T10:29:59.150Z,506.25
2018-07-15T10:30:59.047Z,495.00
2018-07-15T10:31:59.020Z,500.63
2018-07-15T10:32:59.006Z,472.50
2018-07-15T10:33:59.036Z,421.88
2018-07-15T10:34:59.017Z,365.63
2018-07-15T10:35:58.941Z,371.25
2018-07-15T10:36:58.917Z,331.88
2018-07-15T10:37:58.899Z,320.63
2018-07-15T10:38:58.948Z,303.75
2018-07-15T10:39:58.900Z,292.50
2018-07-15T10:40:58.847Z,292.50
2018-07-15T10:41:58.812Z,320.63
2018-07-15T10:42:58.799Z,371.25
2018-07-15T10:43:58.771Z,405.00
2018-07-15T10:44:58.803Z,444.38
2018-07-15T10:45:58.781Z,478.13
2018-07-15T10:46:58.709Z,483.75
2018-07-15T10:47:58.692Z,500.63
2018-07-15T10:48:58.670Z,534.38
2018-07-15T10:49:58.649Z,590.63
2018-07-15T10:50:58.671Z,579.38
2018-07-15T10:51:58.632Z,545.63
2018-07-15T10:52:58.619Z,472.50
2018-07-15T10:53:58.565Z,455.63
2018-07-15T10:54:58.575Z,444.38
2018-07-15T10:55:58.566Z,461.25
2018-07-15T10:56:58.557Z,438.75
2018-07-15T10:57:58.484Z,376.88
2018-07-15T10:58:58.464Z,331.88
2018-07-15T10:59:58.480Z,343.13
2018-07-15T11:00:58.527Z,270.00
2018-07-15T11:01:58.446Z,258.75
2018-07-15T11:02:58.384Z,253.13
2018-07-15T11:03:58.361Z,247.50
2018-07-15T11:04:58.341Z,236.25
2018-07-15T11:05:58.327Z,230.63
2018-07-15T11:06:58.337Z,236.25
2018-07-15T11:07:58.279Z,264.38
2018-07-15T11:08:58.259Z,258.75
2018-07-15T11:09:58.241Z,264.38
2018-07-15T11:10:58.216Z,264.38
2018-07-15T11:11:58.245Z,270.00
2018-07-15T11:12:58.191Z,270.00
2018-07-15T11:13:58.155Z,270.00
2018-07-15T11:14:58.130Z,270.00
2018-07-15T11:15:58.168Z,270.00
2018-07-15T11:16:58.090Z,264.38
2018-07-15T11:17:58.068Z,264.38
2018-07-15T11:18:58.050Z,264.38
2018-07-15T11:19:58.033Z,270.00
2018-07-15T11:20:58.044Z,270.00
2018-07-15T11:21:57.984Z,264.38
2018-07-15T11:22:58.151Z,264.38
2018-07-15T11:23:57.985Z,270.00
2018-07-15T11:24:57.923Z,270.00
2018-07-15T11:25:57.972Z,275.63
2018-07-15T11:26:57.909Z,275.63
2018-07-15T11:27:57.898Z,275.63
2018-07-15T11:28:57.840Z,281.25
2018-07-15T11:29:57.815Z,281.25
2018-07-15T11:30:57.888Z,275.63
2018-07-15T11:31:57.776Z,270.00
2018-07-15T11:32:57.795Z,270.00
2018-07-15T11:33:57.731Z,275.63
2018-07-15T11:34:57.707Z,281.25
2018-07-15T11:35:57.734Z,281.25
2018-07-15T11:36:57.671Z,292.50
2018-07-15T11:37:57.686Z,309.38
2018-07-15T11:38:57.668Z,326.25
2018-07-15T11:39:57.607Z,331.88
2018-07-15T11:40:57.583Z,343.13
2018-07-15T11:41:57.611Z,371.25
2018-07-15T11:42:57.544Z,393.75
2018-07-15T11:43:57.528Z,405.00
2018-07-15T11:44:57.506Z,382.50
2018-07-15T11:45:57.497Z,360.00
2018-07-15T11:46:57.520Z,365.63
2018-07-15T11:47:57.447Z,388.13
2018-07-15T11:48:57.428Z,410.63
2018-07-15T11:49:57.414Z,416.25
2018-07-15T11:50:57.376Z,399.38
2018-07-15T11:51:57.412Z,388.13
2018-07-15T11:52:57.341Z,388.13
2018-07-15T11:53:57.357Z,388.13
2018-07-15T11:54:57.300Z,354.38
2018-07-15T11:55:57.318Z,315.00
2018-07-15T11:56:57.254Z,292.50
2018-07-15T11:57:57.235Z,309.38
2018-07-15T11:58:57.217Z,303.75
2018-07-15T11:59:57.219Z,247.50
2018-07-15T12:00:57.216Z,241.88
2018-07-15T12:01:57.197Z,264.38
2018-07-15T12:02:57.130Z,270.00
2018-07-15T12:03:57.109Z,292.50
2018-07-15T12:04:57.090Z,309.38
2018-07-15T12:05:57.117Z,303.75
2018-07-15T12:06:57.096Z,309.38
2018-07-15T12:07:57.041Z,315.00
2018-07-15T12:08:57.009Z,320.63
2018-07-15T12:09:56.995Z,337.50
2018-07-15T12:10:56.969Z,348.75
2018-07-15T12:11:57.012Z,365.63
2018-07-15T12:12:56.923Z,393.75
2018-07-15T12:13:56.950Z,399.38
2018-07-15T12:14:56.884Z,410.63
2018-07-15T12:15:56.864Z,427.50
2018-07-15T12:16:56.852Z,438.75
2018-07-15T12:17:56.820Z,433.13
2018-07-15T12:18:56.845Z,416.25
2018-07-15T12:19:56.782Z,399.38
2018-07-15T12:20:56.762Z,371.25
2018-07-15T12:21:56.751Z,348.75
2018-07-15T12:22:56.721Z,320.63
2018-07-15T12:23:56.747Z,286.88
2018-07-15T12:24:56.686Z,275.63
2018-07-15T12:25:56.659Z,264.38
2018-07-15T12:26:56.644Z,230.63
2018-07-15T12:27:56.626Z,230.63
2018-07-15T12:28:56.650Z,236.25
2018-07-15T12:29:56.582Z,258.75
2018-07-15T12:30:56.557Z,281.25
2018-07-15T12:31:57.127Z,286.88
2018-07-15T12:32:56.520Z,292.50
2018-07-15T12:33:56.548Z,298.13
2018-07-15T12:34:56.486Z,298.13
2018-07-15T12:35:56.457Z,303.75
2018-07-15T12:36:56.439Z,309.38
2018-07-15T12:37:56.417Z,320.63
2018-07-15T12:38:56.449Z,326.25
2018-07-15T12:39:56.376Z,331.88
2018-07-15T12:40:56.358Z,337.50